Time;durP1;ratioP1;P1;durP2;ratioP2;P2;SDS_P1;SDS_P2;PMS_P1;PMS_P2;Temp;Humidity;BMP_temperature;BMP_pressure;BME280_temperature;BME280_humidity;BME280_pressure;Samples;Min_cycle;Max_cycle;Signal;HPM_P1;HPM_P2
2023/01/02 05:25:30;;;;;;;6.88;2.83;;;;;;;8.90;100.00;100243.38;5088758;28;20727;-69
2023/01/02 05:27:55;;;;;;;4.07;2.58;;;;;;;8.87;100.00;100241.06;5088593;28;20020;-68
2023/01/02 05:30:21;;;;;;;7.63;3.28;;;;;;;8.85;100.00;100240.34;5088767;28;20047;-69
2023/01/02 05:32:47;;;;;;;5.80;3.08;;;;;;;8.88;100.00;100240.06;5088682;28;20040;-69
2023/01/02 05:35:13;;;;;;;9.43;3.95;;;;;;;8.86;100.00;100255.31;5088444;28;20375;-68
2023/01/02 05:37:39;;;;;;;6.95;2.95;;;;;;;8.89;99.91;100255.00;5089009;28;20040;-69
2023/01/02 05:40:05;;;;;;;8.48;2.88;;;;;;;8.89;99.78;100256.81;5088625;28;20131;-68
2023/01/02 05:42:30;;;;;;;11.10;3.30;;;;;;;8.84;99.53;100261.78;5088624;28;20055;-69
2023/01/02 05:44:55;;;;;;;6.80;2.83;;;;;;;8.79;99.91;100262.25;5088714;28;20071;-68
2023/01/02 05:47:21;;;;;;;5.50;2.80;;;;;;;8.83;98.81;100260.94;5088359;28;20109;-69
2023/01/02 05:49:46;;;;;;;5.82;2.90;;;;;;;8.83;99.26;100265.44;5088726;28;20103;-69
2023/01/02 05:52:12;;;;;;;5.03;2.90;;;;;;;8.81;99.39;100268.25;5088423;28;20045;-68
2023/01/02 05:54:37;;;;;;;9.27;3.08;;;;;;;8.78;99.01;100257.13;5088639;28;20427;-69
2023/01/02 05:57:03;;;;;;;4.75;2.95;;;;;;;8.75;99.74;100268.91;5088134;28;20111;-68
2023/01/02 05:59:28;;;;;;;7.65;3.22;;;;;;;8.56;100.00;100275.28;5088385;28;20067;-68
2023/01/02 06:01:54;;;;;;;7.07;2.72;;;;;;;8.53;100.00;100272.94;5088276;28;20032;-68
2023/01/02 06:04:19;;;;;;;6.43;2.65;;;;;;;8.52;100.00;100279.25;5088237;28;20471;-68
2023/01/02 06:06:44;;;;;;;4.72;2.78;;;;;;;8.46;100.00;100282.53;5088035;28;20434;-68
2023/01/02 06:09:14;;;;;;;3.75;2.67;;;;;;;8.48;100.00;100283.22;5087861;28;20536;-69
2023/01/02 06:11:40;;;;;;;8.68;3.05;;;;;;;8.45;100.00;100288.84;5087829;28;20044;-68
2023/01/02 06:14:07;;;;;;;8.25;2.92;;;;;;;8.35;100.00;100296.94;5088042;28;20028;-68
2023/01/02 06:16:33;;;;;;;8.13;3.00;;;;;;;8.33;100.00;100296.22;5088080;28;20052;-68
2023/01/02 06:18:58;;;;;;;6.32;2.70;;;;;;;8.28;100.00;100310.94;5084324;28;20505;-68
2023/01/02 06:21:24;;;;;;;7.40;2.92;;;;;;;8.20;100.00;100319.69;5087876;28;20040;-69
2023/01/02 06:23:55;;;;;;;6.22;2.45;;;;;;;8.19;100.00;100315.38;5087907;28;20081;-69
2023/01/02 06:26:21;;;;;;;4.93;2.67;;;;;;;8.14;100.00;100318.47;5087637;28;20430;-66
2023/01/02 06:28:52;;;;;;;4.72;2.83;;;;;;;8.10;100.00;100318.97;5087549;28;20403;-69
2023/01/02 06:31:20;;;;;;;6.55;2.70;;;;;;;8.05;100.00;100323.91;5087628;28;20033;-69
2023/01/02 06:33:45;;;;;;;7.40;2.53;;;;;;;8.07;100.00;100321.91;5075938;28;20089;-70
2023/01/02 06:36:16;;;;;;;6.15;2.67;;;;;;;8.04;100.00;100325.72;5074144;28;20037;-68
2023/01/02 06:38:44;;;;;;;6.07;2.80;;;;;;;8.04;100.00;100327.53;5073910;28;20079;-69
2023/01/02 06:41:09;;;;;;;6.13;2.95;;;;;;;7.98;100.00;100325.50;5074212;28;20123;-68
2023/01/02 06:43:40;;;;;;;5.43;2.55;;;;;;;7.98;100.00;100323.69;5073999;28;20036;-68
2023/01/02 06:46:05;;;;;;;3.45;2.30;;;;;;;7.97;100.00;100321.19;5074019;28;20032;-68
2023/01/02 06:48:33;;;;;;;4.45;2.53;;;;;;;7.95;100.00;100321.31;5073677;28;20147;-69
2023/01/02 06:51:03;;;;;;;8.75;2.50;;;;;;;7.95;100.00;100331.09;5073922;28;20040;-69
2023/01/02 06:53:28;;;;;;;7.10;2.75;;;;;;;7.96;100.00;100336.28;5073882;28;20041;-69
2023/01/02 06:55:56;;;;;;;4.45;2.90;;;;;;;7.99;100.00;100341.25;5073852;28;20059;-69
2023/01/02 06:58:23;;;;;;;5.18;2.20;;;;;;;8.03;100.00;100341.81;5073579;28;20043;-69
2023/01/02 07:00:49;;;;;;;2.90;2.28;;;;;;;8.02;100.00;100346.28;5072627;28;20149;-69
2023/01/02 07:03:15;;;;;;;7.35;2.65;;;;;;;8.05;100.00;100353.09;5072759;28;20114;-68
2023/01/02 07:05:41;;;;;;;7.60;2.67;;;;;;;8.07;100.00;100353.75;5073542;28;20111;-69
2023/01/02 07:08:07;;;;;;;12.68;4.57;;;;;;;8.09;100.00;100352.63;5073389;28;20041;-69
2023/01/02 07:10:33;;;;;;;4.95;3.13;;;;;;;8.06;100.00;100354.75;5072060;28;20040;-68
2023/01/02 07:12:58;;;;;;;5.45;2.60;;;;;;;8.03;100.00;100350.59;5073674;28;20074;-67
2023/01/02 07:15:24;;;;;;;8.15;2.63;;;;;;;8.08;100.00;100356.25;5073499;28;20089;-68
2023/01/02 07:17:49;;;;;;;4.05;2.42;;;;;;;8.11;100.00;100355.13;5073344;28;20408;-68
2023/01/02 07:20:15;;;;;;;4.78;2.17;;;;;;;8.15;100.00;100356.50;5073289;28;20045;-69
2023/01/02 07:22:40;;;;;;;3.17;2.17;;;;;;;8.13;100.00;100364.56;5073450;28;20465;-68
2023/01/02 07:25:06;;;;;;;3.88;1.95;;;;;;;8.15;100.00;100367.94;5073391;28;20155;-68
2023/01/02 07:27:32;;;;;;;2.60;2.17;;;;;;;8.13;100.00;100369.06;5072918;28;20036;-68
2023/01/02 07:29:58;;;;;;;3.13;2.13;;;;;;;8.09;100.00;100378.31;5073315;28;20067;-70
2023/01/02 07:32:23;;;;;;;8.38;2.22;;;;;;;8.14;100.00;100368.06;5073191;28;20111;-69
2023/01/02 07:34:50;;;;;;;2.45;1.98;;;;;;;8.15;100.00;100383.84;5073126;28;20471;-70
2023/01/02 07:37:16;;;;;;;2.55;1.75;;;;;;;8.22;100.00;100370.81;5072755;28;20064;-69
2023/01/02 07:39:41;;;;;;;4.03;2.00;;;;;;;8.05;100.00;100382.25;5071887;28;20167;-68
2023/01/02 07:42:07;;;;;;;4.53;2.58;;;;;;;8.10;100.00;100380.00;5073023;28;20094;-68
2023/01/02 07:44:33;;;;;;;2.65;2.00;;;;;;;8.15;100.00;100372.41;5072078;28;20040;-66
2023/01/02 07:46:58;;;;;;;3.00;1.73;;;;;;;8.19;100.00;100373.75;5072833;28;20039;-66
2023/01/02 07:49:23;;;;;;;2.25;1.60;;;;;;;8.22;100.00;100372.63;5073082;28;20071;-66
2023/01/02 07:51:49;;;;;;;3.25;1.92;;;;;;;8.23;100.00;100385.72;5072590;28;20033;-70
2023/01/02 07:54:14;;;;;;;5.18;2.05;;;;;;;8.26;100.00;100382.75;5072724;28;20032;-71
2023/01/02 07:56:39;;;;;;;6.28;2.30;;;;;;;8.27;100.00;100387.06;5072439;28;20489;-71
2023/01/02 07:59:05;;;;;;;4.85;2.72;;;;;;;8.27;100.00;100386.25;5072294;28;20039;-71
2023/01/02 08:01:30;;;;;;;3.97;2.35;;;;;;;8.23;100.00;100385.72;5072543;28;20488;-72
2023/01/02 08:03:55;;;;;;;4.18;2.25;;;;;;;8.26;100.00;100400.50;5072511;28;20544;-71
2023/01/02 08:06:21;;;;;;;5.45;2.15;;;;;;;8.22;100.00;100409.78;5072370;28;20051;-70
2023/01/02 08:08:46;;;;;;;2.33;1.63;;;;;;;8.22;100.00;100407.94;5072108;28;20040;-70
2023/01/02 08:11:15;;;;;;;4.40;2.40;;;;;;;8.23;100.00;100406.13;5072245;28;20389;-71
2023/01/02 08:13:40;;;;;;;8.63;2.45;;;;;;;8.25;100.00;100410.28;5072292;28;20068;-71
2023/01/02 08:16:11;;;;;;;4.45;1.65;;;;;;;8.24;100.00;100413.94;5072264;28;20074;-71
2023/01/02 08:18:37;;;;;;;2.97;2.28;;;;;;;8.30;100.00;100421.28;5071944;28;20032;-71
2023/01/02 08:21:04;;;;;;;3.33;2.10;;;;;;;8.31;100.00;100422.94;5072156;28;20025;-71
2023/01/02 08:23:30;;;;;;;2.90;1.63;;;;;;;8.35;100.00;100431.44;5072167;28;20094;-70
2023/01/02 08:25:57;;;;;;;3.90;2.28;;;;;;;8.37;100.00;100429.50;5072015;28;20393;-71
2023/01/02 08:28:23;;;;;;;7.15;2.15;;;;;;;8.40;99.99;100431.81;5071841;28;20044;-71
2023/01/02 08:30:48;;;;;;;4.63;1.70;;;;;;;8.46;97.81;100439.16;5071959;28;20093;-71
2023/01/02 08:33:14;;;;;;;5.15;1.60;;;;;;;8.52;97.05;100441.19;5067420;28;20504;-71
2023/01/02 08:35:39;;;;;;;4.30;1.80;;;;;;;8.54;99.01;100441.03;5071276;28;20055;-71
2023/01/02 08:38:04;;;;;;;5.55;2.10;;;;;;;8.64;98.77;100442.63;5071185;28;20036;-70
2023/01/02 08:40:30;;;;;;;6.45;1.67;;;;;;;8.70;97.94;100442.00;5072033;28;20047;-70
2023/01/02 08:42:55;;;;;;;8.02;2.03;;;;;;;8.78;99.78;100449.19;5074058;28;20036;-71
2023/01/02 08:45:20;;;;;;;4.15;2.13;;;;;;;8.81;99.51;100454.19;5071737;28;20051;-70
2023/01/02 08:47:46;;;;;;;6.22;2.60;;;;;;;8.87;100.00;100456.22;5071663;28;20044;-71
2023/01/02 08:50:11;;;;;;;4.38;2.20;;;;;;;8.99;99.58;100462.06;5070481;28;20391;-71
2023/01/02 08:52:37;;;;;;;2.88;2.08;;;;;;;9.06;100.00;100468.44;5070323;28;20051;-71
2023/01/02 08:55:04;;;;;;;5.82;1.65;;;;;;;9.15;100.00;100464.00;5071562;28;20051;-71
2023/01/02 08:57:31;;;;;;;6.05;2.22;;;;;;;9.20;100.00;100472.34;5071285;28;20039;-71
2023/01/02 08:59:57;;;;;;;4.78;2.85;;;;;;;9.40;99.43;100471.09;5071554;28;20041;-71
2023/01/02 09:02:23;;;;;;;3.75;2.42;;;;;;;9.61;99.00;100470.66;5071568;28;20033;-71
2023/01/02 09:04:48;;;;;;;13.95;3.80;;;;;;;9.84;96.79;100470.88;5071846;28;20386;-71
2023/01/02 09:07:13;;;;;;;4.40;2.72;;;;;;;10.04;94.21;100485.59;5071181;28;20094;-71
2023/01/02 09:09:39;;;;;;;8.18;3.97;;;;;;;10.23;92.36;100480.97;5071574;28;20045;-71
2023/01/02 09:12:04;;;;;;;4.90;2.80;;;;;;;10.38;93.04;100481.97;5071578;28;20045;-71
2023/01/02 09:14:30;;;;;;;4.20;2.15;;;;;;;10.52;91.52;100489.31;5071487;28;20052;-70
2023/01/02 09:16:56;;;;;;;9.88;4.38;;;;;;;10.67;91.05;100496.63;5071306;28;20048;-71
2023/01/02 09:19:23;;;;;;;7.28;3.28;;;;;;;10.76;90.39;100509.78;5071120;28;20040;-71
2023/01/02 09:21:49;;;;;;;7.35;3.03;;;;;;;10.84;89.58;100512.44;5071311;28;20072;-71
2023/01/02 09:24:14;;;;;;;3.20;2.13;;;;;;;10.96;89.10;100520.91;5071344;28;20121;-70
2023/01/02 09:26:42;;;;;;;6.00;2.55;;;;;;;11.01;92.15;100525.72;5071258;28;20402;-71
2023/01/02 09:29:09;;;;;;;5.78;2.60;;;;;;;11.16;89.83;100518.72;5071086;28;20047;-71
2023/01/02 09:31:35;;;;;;;4.40;2.17;;;;;;;11.34;90.31;100523.81;5071287;28;20043;-71
2023/01/02 09:34:00;;;;;;;5.97;2.55;;;;;;;11.39;89.30;100519.63;5071309;28;20116;-68
2023/01/02 09:36:26;;;;;;;4.28;2.33;;;;;;;11.45;89.79;100528.78;5071288;28;20493;-70
2023/01/02 09:38:57;;;;;;;11.15;4.70;;;;;;;11.51;89.53;100528.09;5070989;28;20060;-70
2023/01/02 09:41:40;;;;;;;4.97;2.45;;;;;;;11.48;88.60;100528.44;5071257;28;20032;-70
2023/01/02 09:44:47;;;;;;;5.75;2.58;;;;;;;11.48;88.02;100528.44;5071187;28;20037;-70
2023/01/02 09:47:17;;;;;;;4.35;2.42;;;;;;;11.57;84.17;100519.41;5067619;28;20460;-71
2023/01/02 09:49:46;;;;;;;3.03;2.15;;;;;;;11.84;76.98;100527.97;5071085;28;20037;-71
2023/01/02 09:52:39;;;;;;;4.10;2.17;;;;;;;11.88;82.76;100524.78;5071047;28;20037;-71
2023/01/02 09:55:17;;;;;;;3.70;2.00;;;;;;;12.01;80.69;100529.56;5070792;28;20048;-71
2023/01/02 09:57:51;;;;;;;4.03;2.05;;;;;;;12.15;79.29;100536.00;5070665;28;20040;-71
2023/01/02 10:00:21;;;;;;;5.13;2.30;;;;;;;12.32;78.75;100542.03;5071014;28;20037;-71
2023/01/02 10:03:15;;;;;;;5.30;2.40;;;;;;;12.45;80.44;100547.63;5070817;28;20125;-71
2023/01/02 10:05:58;;;;;;;7.80;2.92;;;;;;;12.65;78.28;100547.97;5071086;28;20033;-71
2023/01/02 10:08:41;;;;;;;7.07;2.97;;;;;;;12.70;77.11;100541.09;5072586;28;20024;-71
2023/01/02 10:11:33;;;;;;;5.07;2.30;;;;;;;12.85;74.52;100541.16;5074609;28;20047;-71
2023/01/02 10:14:04;;;;;;;2.17;1.58;;;;;;;13.15;72.52;100543.84;5074634;28;20078;-71
2023/01/02 10:16:35;;;;;;;6.35;2.45;;;;;;;13.51;69.91;100530.63;5074637;28;20493;-71
2023/01/02 10:19:06;;;;;;;4.38;2.20;;;;;;;14.02;72.10;100544.03;5074259;28;20032;-72
2023/01/02 10:21:34;;;;;;;4.75;1.92;;;;;;;14.18;72.91;100551.00;5074414;28;20386;-71
2023/01/02 10:24:05;;;;;;;4.57;1.92;;;;;;;14.36;72.00;100548.75;5073190;28;20506;-71
2023/01/02 10:26:43;;;;;;;5.65;3.08;;;;;;;14.45;68.46;100541.41;5074383;28;20097;-71
2023/01/02 10:29:32;;;;;;;5.20;2.13;;;;;;;14.38;66.01;100552.88;5074267;28;20074;-72
2023/01/02 10:32:00;;;;;;;9.00;2.50;;;;;;;14.42;64.89;100550.66;5074138;28;20056;-71
2023/01/02 10:34:35;;;;;;;4.55;2.17;;;;;;;14.39;66.77;100554.53;5074321;28;20040;-71
2023/01/02 10:37:01;;;;;;;2.45;1.45;;;;;;;14.33;63.24;100549.09;5074256;28;20175;-72
2023/01/02 10:39:31;;;;;;;4.90;2.63;;;;;;;14.44;62.51;100555.81;5074063;28;20056;-72
2023/01/02 10:41:58;;;;;;;4.40;1.52;;;;;;;14.61;59.78;100551.91;5074204;28;20079;-72
2023/01/02 10:44:31;;;;;;;5.78;2.00;;;;;;;15.05;57.49;100554.31;5074061;28;20378;-71
2023/01/02 10:47:05;;;;;;;6.03;1.30;;;;;;;15.46;55.44;100556.28;5074010;28;20660;-72
2023/01/02 10:49:33;;;;;;;4.72;1.60;;;;;;;16.13;53.89;100552.88;5074762;28;20489;-72
2023/01/02 10:52:06;;;;;;;2.88;1.55;;;;;;;16.88;51.13;100547.44;5073857;28;20047;-72
2023/01/02 10:54:55;;;;;;;3.03;1.50;;;;;;;17.69;48.53;100544.41;5074276;28;20104;-71
2023/01/02 10:57:35;;;;;;;5.38;1.38;;;;;;;18.07;47.65;100547.19;5073593;28;20036;-71
2023/01/02 11:00:03;;;;;;;3.30;2.20;;;;;;;18.32;45.58;100544.53;5074109;28;20482;-71
2023/01/02 11:02:41;;;;;;;4.22;1.70;;;;;;;18.12;45.68;100547.34;5073717;28;20481;-71
2023/01/02 11:05:18;;;;;;;2.10;1.40;;;;;;;18.03;45.18;100543.25;5073648;28;20033;-71
2023/01/02 11:07:47;;;;;;;5.95;1.95;;;;;;;18.45;45.35;100547.16;5073597;28;20089;-71
2023/01/02 11:10:28;;;;;;;2.55;1.42;;;;;;;18.61;43.96;100545.81;5073630;28;20090;-71
2023/01/02 11:12:53;;;;;;;2.15;1.00;;;;;;;18.88;43.89;100538.38;5072390;28;20052;-71
2023/01/02 11:15:25;;;;;;;3.55;1.20;;;;;;;19.32;43.22;100552.72;5073659;28;20047;-71
2023/01/02 11:17:51;;;;;;;2.85;1.50;;;;;;;19.68;42.18;100552.75;5073229;28;20037;-69
2023/01/02 11:20:29;;;;;;;3.47;1.35;;;;;;;20.26;40.78;100549.53;5073228;28;20397;-71
2023/01/02 11:22:57;;;;;;;6.43;1.80;;;;;;;20.71;39.69;100551.81;5073389;28;20408;-70
2023/01/02 11:25:25;;;;;;;3.47;1.60;;;;;;;20.70;40.03;100560.97;5073285;28;20040;-70
2023/01/02 11:27:56;;;;;;;2.25;1.67;;;;;;;21.07;39.25;100548.09;5072994;28;20044;-70
2023/01/02 11:30:34;;;;;;;2.85;1.15;;;;;;;21.06;39.13;100530.19;5073241;28;20458;-69
2023/01/02 11:33:23;;;;;;;4.75;1.42;;;;;;;20.95;39.69;100536.44;5073365;28;20094;-69
2023/01/02 11:35:56;;;;;;;5.88;1.42;;;;;;;20.76;40.21;100538.41;5069817;28;20132;-68
2023/01/02 11:39:04;;;;;;;4.32;2.08;;;;;;;21.20;39.61;100528.06;5072862;28;20081;-71
2023/01/02 11:44:21;;;;;;;1.67;1.02;;;;;;;21.71;38.01;100517.53;5072932;28;20489;-71
2023/01/02 11:46:47;;;;;;;1.95;1.08;;;;;;;21.90;38.41;100519.00;5071582;28;20082;-71
2023/01/02 11:49:16;;;;;;;6.47;1.52;;;;;;;22.75;37.29;100527.06;5072531;28;20053;-72
2023/01/02 11:51:42;;;;;;;3.85;1.55;;;;;;;22.83;36.77;100525.88;5072760;28;20060;-71
2023/01/02 11:54:21;;;;;;;4.65;1.30;;;;;;;22.69;36.50;100522.66;5072915;28;20505;-70
2023/01/02 11:56:48;;;;;;;2.60;1.02;;;;;;;22.83;36.33;100523.16;5072588;28;20040;-69
2023/01/02 11:59:21;;;;;;;1.65;1.10;;;;;;;22.28;36.04;100520.28;5072317;28;20036;-70
2023/01/02 12:01:54;;;;;;;5.50;1.98;;;;;;;22.55;37.26;100518.59;5072609;28;20150;-69
2023/01/02 12:04:21;;;;;;;4.22;1.35;;;;;;;22.08;38.08;100524.22;5072634;28;20131;-70
2023/01/02 12:07:23;;;;;;;6.40;2.15;;;;;;;21.81;38.91;100528.59;5072484;28;20052;-69
2023/01/02 12:10:19;;;;;;;3.25;1.45;;;;;;;21.60;39.01;100543.59;5072607;28;20067;-69
2023/01/02 12:12:50;;;;;;;7.00;1.85;;;;;;;21.20;40.04;100549.75;5072407;28;20040;-69
2023/01/02 12:15:34;;;;;;;3.97;1.15;;;;;;;19.83;43.02;100554.28;5072535;28;20436;-71
2023/01/02 12:18:02;;;;;;;8.70;4.03;;;;;;;19.95;43.47;100556.00;5071919;28;20052;-71
2023/01/02 12:20:42;;;;;;;6.75;2.20;;;;;;;19.40;45.76;100563.22;5072158;28;20036;-71
2023/01/02 12:23:43;;;;;;;6.05;1.63;;;;;;;18.79;47.72;100566.69;5072110;28;20032;-71
2023/01/02 12:26:19;;;;;;;8.93;1.58;;;;;;;18.52;48.95;100572.25;5063370;28;20044;-71
2023/01/02 12:29:11;;;;;;;5.35;1.98;;;;;;;18.16;50.88;100576.38;5071785;28;20079;-72
2023/01/02 12:31:55;;;;;;;2.45;1.40;;;;;;;17.79;52.00;100585.22;5071720;28;20036;-69
2023/01/02 12:34:33;;;;;;;5.07;1.83;;;;;;;17.32;53.91;100577.22;5070639;28;20047;-70
2023/01/02 12:37:16;;;;;;;;;;;;;;;17.34;53.98;100571.63;5072096;28;20036;-70
2023/01/02 12:39:59;;;;;;;2.63;1.33;;;;;;;17.10;54.58;100573.09;5071947;28;20006;-70
2023/01/02 12:42:33;;;;;;;3.55;1.75;;;;;;;17.01;55.03;100572.47;5071936;28;20551;-70
2023/01/02 12:45:02;;;;;;;3.90;1.20;;;;;;;16.93;55.24;100570.00;5071859;28;20481;-70
2023/01/02 12:47:42;;;;;;;5.97;2.00;;;;;;;16.91;55.92;100572.06;5071420;28;20186;-70
2023/01/02 12:50:26;;;;;;;2.47;1.23;;;;;;;16.84;56.56;100560.47;5072045;28;20576;-69
2023/01/02 12:53:18;;;;;;;3.40;1.90;;;;;;;16.78;57.14;100561.31;5071642;28;20036;-69
2023/01/02 12:55:44;;;;;;;6.13;1.95;;;;;;;16.62;56.68;100561.66;5069062;28;20111;-69
2023/01/02 12:58:27;;;;;;;4.80;1.45;;;;;;;16.54;57.98;100568.88;5065087;28;20157;-72
2023/01/02 13:01:18;;;;;;;3.42;1.80;;;;;;;16.44;58.70;100562.28;5071627;28;20071;-72
2023/01/02 13:03:57;;;;;;;6.75;1.67;;;;;;;16.39;58.28;100556.66;5071548;28;20448;-71
2023/01/02 13:06:38;;;;;;;3.83;2.03;;;;;;;16.34;58.40;100564.50;5071440;28;20063;-72
2023/01/02 13:09:19;;;;;;;5.28;1.40;;;;;;;16.05;59.87;100571.88;5060581;28;20072;-72
2023/01/02 13:12:04;;;;;;;5.25;1.50;;;;;;;16.06;60.79;100573.53;5051482;28;20199;-72
2023/01/02 13:14:36;;;;;;;3.05;1.23;;;;;;;15.84;61.76;100569.28;5051383;28;20443;-72
2023/01/02 13:17:37;;;;;;;4.25;1.60;;;;;;;15.81;61.91;100580.44;5051635;28;20075;-72
2023/01/02 13:20:12;;;;;;;5.30;1.13;;;;;;;15.57;62.19;100587.91;5020285;28;20194;-72
2023/01/02 13:22:48;;;;;;;4.32;1.50;;;;;;;15.45;63.82;100602.91;5051390;28;20442;-72
2023/01/02 13:25:17;;;;;;;4.30;1.52;;;;;;;15.26;64.13;100609.81;5051429;28;20041;-72
2023/01/02 13:27:44;;;;;;;2.00;1.23;;;;;;;15.25;66.18;100613.50;5050942;28;20037;-72
2023/01/02 13:30:32;;;;;;;1.33;1.20;;;;;;;15.09;68.09;100611.13;5051207;28;20115;-71
2023/01/02 13:32:57;;;;;;;;;;;;;;;14.88;70.04;100602.06;5051638;28;20033;-71
2023/01/02 13:35:23;;;;;;;2.00;1.10;;;;;;;14.77;71.55;100609.78;5051097;28;20377;-72
2023/01/02 13:37:51;;;;;;;1.95;1.40;;;;;;;14.71;72.02;100605.19;5050853;28;20049;-72
2023/01/02 13:40:31;;;;;;;2.20;1.02;;;;;;;14.56;74.46;100607.94;5051203;28;20060;-71
2023/01/02 13:43:02;;;;;;;3.55;1.30;;;;;;;14.46;75.28;100616.28;5052315;28;20048;-71
2023/01/02 13:45:55;;;;;;;2.78;1.40;;;;;;;14.23;79.54;100616.41;5055244;28;20033;-71
2023/01/02 13:48:44;;;;;;;2.47;1.40;;;;;;;14.03;82.00;100618.03;5053387;28;20052;-71
2023/01/02 13:51:14;;;;;;;3.75;1.65;;;;;;;13.94;86.09;100619.13;5055082;28;20291;-71
2023/01/02 13:53:48;;;;;;;4.97;1.38;;;;;;;13.83;86.46;100617.75;5055102;28;20374;-71
2023/01/02 13:56:16;;;;;;;2.42;1.40;;;;;;;13.72;86.46;100621.72;5054851;28;20382;-72
2023/01/02 13:59:20;;;;;;;2.92;1.70;;;;;;;13.59;90.95;100626.88;5054689;28;20194;-71
2023/01/02 14:02:00;;;;;;;6.53;1.63;;;;;;;13.50;89.40;100641.38;5054852;28;20478;-72
2023/01/02 14:04:32;;;;;;;3.28;1.38;;;;;;;13.41;91.67;100634.41;5054810;28;20075;-71
2023/01/02 14:07:41;;;;;;;5.80;1.50;;;;;;;13.30;91.50;100638.34;5054642;28;20044;-71
2023/01/02 14:10:12;;;;;;;4.22;1.67;;;;;;;13.21;92.05;100645.63;4993007;28;20538;-71
2023/01/02 14:12:52;;;;;;;3.20;1.75;;;;;;;13.18;92.92;100648.66;4992913;28;20041;-72
2023/01/02 14:15:21;;;;;;;4.60;1.60;;;;;;;13.11;94.11;100653.06;5032021;28;20048;-71
2023/01/02 14:18:05;;;;;;;4.75;2.10;;;;;;;12.97;95.15;100661.84;5054533;28;20103;-71
2023/01/02 14:20:42;;;;;;;6.43;1.80;;;;;;;12.95;97.28;100667.38;5054368;28;20103;-71
2023/01/02 14:23:25;;;;;;;3.45;1.98;;;;;;;12.85;97.76;100668.66;5054559;28;20028;-71
2023/01/02 14:25:50;;;;;;;4.32;1.60;;;;;;;12.76;97.74;100673.19;5054348;28;20036;-71
2023/01/02 14:28:29;;;;;;;1.83;1.40;;;;;;;12.69;97.42;100677.59;5053968;28;20038;-71
2023/01/02 14:30:55;;;;;;;2.67;1.50;;;;;;;12.60;99.59;100679.47;5054262;28;20405;-71
2023/01/02 14:33:33;;;;;;;5.68;1.92;;;;;;;12.39;100.00;100677.44;5054128;28;20040;-70
2023/01/02 14:36:03;;;;;;;;;;;;;;;12.32;100.00;100683.63;5054621;28;20481;-71
2023/01/02 14:38:36;;;;;;;3.75;1.80;;;;;;;12.22;100.00;100686.50;5053954;28;19912;-72
2023/01/02 14:43:47;;;;;;;2.35;1.77;;;;;;;11.99;100.00;100680.25;5054164;28;20032;-70
2023/01/02 14:46:22;;;;;;;3.00;1.87;;;;;;;11.91;100.00;100692.59;5053810;28;20129;-71
2023/01/02 14:48:59;;;;;;;6.25;1.88;;;;;;;11.80;100.00;100682.28;5053707;28;20283;-70
2023/01/02 14:51:39;;;;;;;3.80;2.00;;;;;;;11.72;100.00;100684.94;5053944;28;20448;-71
2023/01/02 14:54:16;;;;;;;4.15;1.85;;;;;;;11.66;100.00;100689.13;5053459;28;20513;-71
2023/01/02 14:56:46;;;;;;;6.05;2.05;;;;;;;11.65;100.00;100684.78;5053749;28;20045;-71
2023/01/02 14:59:17;;;;;;;3.53;1.80;;;;;;;11.57;100.00;100687.47;5053551;28;20045;-71
2023/01/02 15:01:48;;;;;;;4.07;1.90;;;;;;;11.51;100.00;100687.31;5053973;28;20039;-69
2023/01/02 15:04:39;;;;;;;8.05;3.08;;;;;;;11.51;100.00;100692.66;5053802;28;20091;-67
2023/01/02 15:07:26;;;;;;;4.63;2.55;;;;;;;11.45;100.00;100685.31;5052159;28;20044;-69
2023/01/02 15:10:00;;;;;;;3.15;1.85;;;;;;;11.44;100.00;100697.84;5051799;28;20128;-68
2023/01/02 15:15:18;;;;;;;3.25;1.92;;;;;;;11.43;100.00;100688.16;5054127;28;20124;-68
2023/01/02 15:17:48;;;;;;;4.72;2.35;;;;;;;11.44;100.00;100687.16;5054839;28;20110;-69
2023/01/02 15:20:20;;;;;;;7.32;3.17;;;;;;;11.45;100.00;100678.16;5054186;28;20028;-68
2023/01/02 15:22:46;;;;;;;3.40;2.00;;;;;;;11.47;100.00;100691.31;5053430;28;20029;-69
2023/01/02 15:25:13;;;;;;;2.35;1.75;;;;;;;11.46;100.00;100687.81;5052028;28;20432;-68
2023/01/02 15:27:39;;;;;;;;;;;;;;;11.53;100.00;100693.31;5053471;28;20037;-70
2023/01/02 15:30:25;;;;;;;5.50;1.63;;;;;;;11.54;100.00;100698.50;5053236;28;19913;-69
2023/01/02 15:32:50;;;;;;;5.72;2.10;;;;;;;11.60;100.00;100703.13;5053174;28;20036;-70
2023/01/02 15:35:20;;;;;;;2.22;1.45;;;;;;;11.66;100.00;100701.63;5053074;28;20406;-69
2023/01/02 15:37:48;;;;;;;4.53;2.30;;;;;;;11.69;100.00;100707.47;5051594;28;20044;-69
2023/01/02 15:40:27;;;;;;;5.57;2.03;;;;;;;11.71;100.00;100712.66;5052842;28;20052;-68
2023/01/02 15:45:44;;;;;;;4.43;2.17;;;;;;;11.81;100.00;100721.34;5053849;28;20037;-69
2023/01/02 15:48:11;;;;;;;3.92;2.20;;;;;;;11.81;100.00;100737.34;5052672;28;20127;-69
2023/01/02 15:50:37;;;;;;;8.50;2.40;;;;;;;11.79;100.00;100749.16;5052777;28;20047;-69
2023/01/02 15:53:06;;;;;;;7.57;1.85;;;;;;;11.81;100.00;100760.56;5052837;28;20048;-70
2023/01/02 15:55:37;;;;;;;9.40;2.22;;;;;;;11.84;100.00;100781.56;5052596;28;20037;-69
2023/01/02 15:58:14;;;;;;;1.85;1.38;;;;;;;11.79;100.00;100795.38;5052352;28;20040;-69
2023/01/02 16:00:41;;;;;;;6.53;2.15;;;;;;;11.76;100.00;100805.56;5052650;28;20029;-69
2023/01/02 16:03:08;;;;;;;4.25;2.17;;;;;;;11.74;100.00;100804.91;5052536;28;20033;-70
2023/01/02 16:05:55;;;;;;;10.77;3.00;;;;;;;11.72;100.00;100806.88;5051694;28;20379;-67
2023/01/02 16:08:23;;;;;;;10.20;2.37;;;;;;;11.61;100.00;100811.56;5052316;28;20444;-66
2023/01/02 16:10:59;;;;;;;7.70;2.10;;;;;;;11.62;100.00;100807.88;5052380;28;20700;-67
2023/01/02 16:16:11;;;;;;;8.45;2.28;;;;;;;11.55;100.00;100812.22;5052475;28;20595;-66
2023/01/02 16:18:42;;;;;;;4.28;2.47;;;;;;;11.51;100.00;100821.56;5051945;28;20052;-67
2023/01/02 16:21:12;;;;;;;6.55;1.98;;;;;;;11.53;100.00;100837.38;5052262;28;20039;-67
2023/01/02 16:23:39;;;;;;;3.67;2.30;;;;;;;11.49;100.00;100844.91;5052158;28;20064;-66
2023/01/02 16:26:08;;;;;;;11.15;2.22;;;;;;;11.46;100.00;100847.03;5052030;28;20103;-67
2023/01/02 16:28:37;;;;;;;4.95;1.85;;;;;;;11.44;100.00;100852.56;5051793;28;20128;-68
2023/01/02 16:31:09;;;;;;;6.90;2.35;;;;;;;11.41;100.00;100856.41;5051958;28;20044;-66
2023/01/02 16:33:35;;;;;;;5.93;1.95;;;;;;;11.44;100.00;100865.06;5052042;28;20056;-68
2023/01/02 16:36:03;;;;;;;6.75;2.22;;;;;;;11.38;100.00;100874.53;5051950;28;20420;-69
2023/01/02 16:38:29;;;;;;;3.53;2.10;;;;;;;11.31;100.00;100879.69;5051654;28;20052;-68
2023/01/02 16:41:03;;;;;;;8.05;2.47;;;;;;;11.30;100.00;100888.69;5051846;28;20032;-68
2023/01/02 16:43:30;;;;;;;7.68;2.75;;;;;;;11.32;100.00;100902.69;5051945;28;20041;-66
2023/01/02 16:45:57;;;;;;;3.42;1.83;;;;;;;11.31;100.00;100900.19;5051791;28;20048;-67
2023/01/02 16:48:26;;;;;;;4.15;1.63;;;;;;;11.27;100.00;100904.19;5051505;28;20040;-67
2023/01/02 16:50:53;;;;;;;1.95;1.45;;;;;;;11.21;100.00;100903.00;5051636;28;20502;-68
2023/01/02 16:53:26;;;;;;;4.25;1.70;;;;;;;11.20;100.00;100903.16;5051702;28;20071;-66
2023/01/02 16:55:52;;;;;;;6.60;1.40;;;;;;;11.17;100.00;100911.50;5051596;28;20131;-68
2023/01/02 16:58:19;;;;;;;1.50;0.98;;;;;;;11.11;100.00;100908.47;5051363;28;20033;-68
2023/01/02 17:00:45;;;;;;;2.25;1.40;;;;;;;11.10;100.00;100920.13;5052242;28;20064;-68
2023/01/02 17:03:17;;;;;;;1.70;1.00;;;;;;;11.08;100.00;100924.81;5071601;28;20036;-68
2023/01/02 17:05:49;;;;;;;1.40;0.80;;;;;;;11.04;100.00;100943.94;5071502;28;20037;-68
2023/01/02 17:08:15;;;;;;;1.17;0.68;;;;;;;11.01;100.00;100954.91;5071042;28;20133;-69
2023/01/02 17:10:41;;;;;;;2.88;1.15;;;;;;;10.99;100.00;100955.06;5071333;28;20526;-68
2023/01/02 17:13:06;;;;;;;1.60;0.93;;;;;;;10.95;100.00;100959.03;5071441;28;20527;-67
2023/01/02 17:15:32;;;;;;;2.35;1.30;;;;;;;10.94;100.00;100973.34;5070001;28;20032;-68
2023/01/02 17:17:58;;;;;;;2.08;1.20;;;;;;;10.87;100.00;100953.66;5070949;28;20033;-68
2023/01/02 17:20:24;;;;;;;2.20;1.15;;;;;;;10.77;100.00;100953.78;5071104;28;20049;-67
2023/01/02 17:22:49;;;;;;;11.23;4.03;;;;;;;10.80;100.00;100961.44;5071286;28;20489;-68